Time;durP1;ratioP1;P1;durP2;ratioP2;P2;SDS_P1;SDS_P2;PMS_P1;PMS_P2;Temp;Humidity;BMP_temperature;BMP_pressure;BME280_temperature;BME280_humidity;BME280_pressure;Samples;Min_cycle;Max_cycle;Signal;HPM_P1;HPM_P2
2023/07/19 00:01:11;;;;;;;9.90;5.00;;;;;;;15.41;92.05;98823.65;271613;1267;23543;-77
2023/07/19 00:07:13;;;;;;;9.70;4.70;;;;;;;15.37;92.25;98814.93;273166;1267;23096;-78
2023/07/19 00:13:15;;;;;;;9.10;4.60;;;;;;;15.30;92.42;98808.38;272194;1256;22427;-77
2023/07/19 00:19:16;;;;;;;9.30;4.90;;;;;;;15.18;92.92;98808.42;273592;1256;22414;-77
2023/07/19 00:25:18;;;;;;;9.60;4.50;;;;;;;15.06;93.16;98801.86;273598;1267;22147;-77
2023/07/19 00:31:20;;;;;;;9.70;5.20;;;;;;;15.03;93.61;98794.64;273606;1267;22352;-77
2023/07/19 00:37:21;;;;;;;9.00;4.90;;;;;;;15.05;93.80;98792.41;273560;1267;22187;-77
2023/07/19 00:43:23;;;;;;;8.80;5.20;;;;;;;15.01;93.76;98791.10;273525;1258;22430;-77
2023/07/19 00:49:25;;;;;;;11.40;5.30;;;;;;;15.06;94.29;98771.85;273606;1256;22159;-77
2023/07/19 00:55:28;;;;;;;5.50;4.30;;;;;;;15.16;94.84;98758.90;273462;1267;22193;-77
2023/07/19 01:01:30;;;;;;;9.50;4.90;;;;;;;15.21;95.17;98742.30;273501;1266;23103;-79
2023/07/19 01:07:53;;;;;;;8.70;4.90;;;;;;;15.25;95.44;98726.10;273552;1257;22211;-77
2023/07/19 01:13:56;;;;;;;7.20;4.50;;;;;;;15.26;95.51;98736.32;273463;1266;22203;-77
2023/07/19 01:19:59;;;;;;;7.10;4.20;;;;;;;15.31;95.39;98739.59;273573;1266;22182;-78
2023/07/19 01:26:01;;;;;;;12.50;4.60;;;;;;;15.33;95.21;98736.73;272732;1267;22437;-77
2023/07/19 01:32:03;;;;;;;11.30;4.10;;;;;;;15.33;95.70;98729.79;273416;1269;22228;-77
2023/07/19 01:38:06;;;;;;;8.20;4.30;;;;;;;15.36;96.12;98723.67;273414;1266;22400;-77
2023/07/19 01:44:08;;;;;;;6.80;3.90;;;;;;;15.31;95.72;98722.88;273417;1268;22379;-77
2023/07/19 01:50:11;;;;;;;10.90;4.60;;;;;;;15.19;95.27;98724.59;273509;1267;22248;-76
2023/07/19 01:56:33;;;;;;;7.20;4.40;;;;;;;15.14;95.78;98717.33;273609;1267;22273;-77
2023/07/19 02:02:34;;;;;;;6.60;3.60;;;;;;;15.07;96.14;98710.47;273552;1256;22271;-76
2023/07/19 02:08:36;;;;;;;8.50;4.60;;;;;;;14.98;96.59;98702.08;273561;1266;24208;-77
2023/07/19 02:14:38;;;;;;;4.80;3.70;;;;;;;14.92;96.84;98700.98;273593;1266;22444;-77
2023/07/19 02:20:47;;;;;;;7.70;5.20;;;;;;;14.91;97.23;98703.25;273378;1267;22535;-77
2023/07/19 02:26:52;;;;;;;8.60;4.40;;;;;;;14.90;97.65;98701.45;271898;1266;22528;-77
2023/07/19 02:33:16;;;;;;;8.80;3.90;;;;;;;14.90;97.96;98687.92;272618;1268;22476;-77
2023/07/19 02:39:33;;;;;;;6.80;4.20;;;;;;;14.86;98.19;98685.11;272306;1267;22500;-77
2023/07/19 02:45:47;;;;;;;9.10;4.40;;;;;;;14.83;98.31;98683.96;272570;1268;22499;-78
2023/07/19 02:52:28;;;;;;;10.90;5.40;;;;;;;14.80;98.61;98682.20;273599;1267;22402;-77
2023/07/19 02:58:30;;;;;;;10.00;5.70;;;;;;;14.82;99.35;98687.83;273596;1261;23708;-76
2023/07/19 03:04:32;;;;;;;10.00;4.80;;;;;;;14.90;99.93;98696.73;273538;1267;22382;-76
2023/07/19 03:10:34;;;;;;;10.40;5.70;;;;;;;15.04;100.00;98699.71;273143;1260;22387;-77
2023/07/19 03:16:36;;;;;;;12.70;6.30;;;;;;;15.14;100.00;98689.13;273354;1269;386966;-76
2023/07/19 03:22:38;;;;;;;12.30;6.10;;;;;;;15.21;100.00;98675.04;272217;1267;22399;-80
2023/07/19 03:28:40;;;;;;;14.70;5.50;;;;;;;15.29;100.00;98676.98;272670;1266;23067;-77
2023/07/19 03:34:42;;;;;;;11.20;5.40;;;;;;;15.40;100.00;98677.48;273100;1269;22902;-78
2023/07/19 03:40:49;;;;;;;10.60;5.40;;;;;;;15.48;100.00;98669.25;272797;1267;22269;-76
2023/07/19 03:46:51;;;;;;;10.60;5.40;;;;;;;15.55;100.00;98672.31;271715;1267;22650;-80
2023/07/19 03:53:01;;;;;;;11.20;5.70;;;;;;;15.58;100.00;98672.65;273421;1267;23164;-77
2023/07/19 03:59:05;;;;;;;11.00;5.80;;;;;;;15.63;100.00;98680.86;272848;1263;22924;-78
2023/07/19 04:05:07;;;;;;;10.40;4.80;;;;;;;15.73;100.00;98681.44;273305;1270;22422;-77
2023/07/19 04:11:29;;;;;;;8.60;5.00;;;;;;;15.85;100.00;98676.69;273560;1265;22148;-77
2023/07/19 04:17:31;;;;;;;7.80;5.20;;;;;;;15.93;100.00;98662.91;273137;1267;22118;-78
2023/07/19 04:23:33;;;;;;;9.60;5.00;;;;;;;16.01;100.00;98659.48;273346;1269;22427;-77
2023/07/19 04:29:45;;;;;;;7.20;4.70;;;;;;;16.08;100.00;98658.83;273459;1257;23801;-77
2023/07/19 04:35:47;;;;;;;7.50;4.60;;;;;;;16.08;100.00;98664.51;273348;1254;23103;-77
2023/07/19 04:41:49;;;;;;;11.40;4.70;;;;;;;16.16;100.00;98663.03;272558;1267;22933;-77
2023/07/19 04:47:53;;;;;;;7.00;4.30;;;;;;;16.25;100.00;98656.48;272880;1257;22485;-81
2023/07/19 04:53:59;;;;;;;11.00;4.80;;;;;;;16.35;100.00;98665.55;273427;1269;23469;-77
2023/07/19 05:00:04;;;;;;;10.20;4.90;;;;;;;16.45;100.00;98672.27;273537;1269;22785;-77
2023/07/19 05:06:29;;;;;;;8.10;4.20;;;;;;;16.56;100.00;98665.91;273528;1267;22499;-77
2023/07/19 05:12:32;;;;;;;10.30;4.90;;;;;;;16.69;100.00;98669.78;273555;1268;22921;-77
2023/07/19 05:18:35;;;;;;;10.70;4.80;;;;;;;16.83;100.00;98672.27;273078;1267;22925;-76
2023/07/19 05:24:37;;;;;;;7.20;4.20;;;;;;;17.01;100.00;98674.85;273252;1267;23071;-77
2023/07/19 05:30:39;;;;;;;7.60;3.80;;;;;;;17.18;100.00;98671.48;273288;1267;22236;-77
2023/07/19 05:36:40;;;;;;;8.80;4.50;;;;;;;17.34;100.00;98670.79;273315;1269;22412;-76
2023/07/19 05:42:42;;;;;;;7.60;4.40;;;;;;;17.50;100.00;98661.69;273055;1270;22404;-77
2023/07/19 05:48:44;;;;;;;10.20;4.40;;;;;;;17.66;100.00;98656.50;273510;1257;22466;-77
2023/07/19 05:54:45;;;;;;;9.40;4.70;;;;;;;17.82;99.87;98644.98;273182;1268;22174;-78
2023/07/19 06:00:47;;;;;;;10.90;5.00;;;;;;;18.00;99.66;98643.91;272685;1266;22284;-77
2023/07/19 06:07:09;;;;;;;8.80;4.40;;;;;;;18.18;98.84;98645.74;272278;1269;23264;-77
2023/07/19 06:13:14;;;;;;;11.40;4.40;;;;;;;18.40;98.47;98641.52;273552;1267;22371;-78
2023/07/19 06:19:44;;;;;;;7.70;4.20;;;;;;;18.60;97.84;98639.95;273520;1258;22385;-76
2023/07/19 06:26:06;;;;;;;9.80;4.50;;;;;;;18.77;97.19;98642.81;273559;1266;22231;-76
2023/07/19 06:32:08;;;;;;;6.50;4.20;;;;;;;18.94;96.49;98638.87;273466;1267;23417;-77
2023/07/19 06:38:10;;;;;;;5.80;3.80;;;;;;;19.14;96.43;98636.85;273443;1267;23447;-77
2023/07/19 06:44:12;;;;;;;7.30;4.20;;;;;;;19.41;96.08;98635.62;273447;1256;22242;-82
2023/07/19 06:50:14;;;;;;;6.80;3.80;;;;;;;19.65;94.69;98636.52;273399;1257;22841;-76
2023/07/19 06:56:15;;;;;;;7.80;4.50;;;;;;;19.94;94.09;98641.79;273510;1267;22387;-77
2023/07/19 07:02:20;;;;;;;4.70;3.20;;;;;;;20.43;93.84;98633.84;273359;1267;22435;-76
2023/07/19 07:08:56;;;;;;;6.40;3.60;;;;;;;21.03;92.46;98621.06;273039;1269;22411;-78
2023/07/19 07:14:57;;;;;;;6.30;3.90;;;;;;;21.71;90.60;98617.80;273398;1254;22334;-78
2023/07/19 07:20:59;;;;;;;5.90;3.50;;;;;;;22.28;88.93;98614.01;273273;1269;22448;-78
2023/07/19 07:27:03;;;;;;;7.90;3.90;;;;;;;22.80;87.85;98605.89;273124;1257;22958;-78
2023/07/19 07:33:04;;;;;;;5.30;3.50;;;;;;;23.35;86.45;98597.97;273225;1264;22444;-80
2023/07/19 07:39:26;;;;;;;8.70;4.10;;;;;;;23.76;83.46;98606.33;273114;1269;22418;-78
2023/07/19 07:45:28;;;;;;;8.20;4.40;;;;;;;24.09;81.67;98600.63;273198;1269;22315;-78
2023/07/19 07:51:30;;;;;;;8.10;3.90;;;;;;;24.39;79.87;98608.24;273408;1269;22295;-79
2023/07/19 07:57:37;;;;;;;11.20;4.30;;;;;;;24.79;79.26;98609.49;273547;1269;23174;-79
2023/07/19 08:03:39;;;;;;;12.70;4.60;;;;;;;25.07;77.38;98610.86;273481;1269;22218;-78
2023/07/19 08:09:40;;;;;;;10.10;4.50;;;;;;;25.16;75.76;98606.79;273572;1254;22174;-78
2023/07/19 08:15:42;;;;;;;7.90;4.20;;;;;;;25.17;74.75;98597.23;273505;1269;23185;-78
2023/07/19 08:21:46;;;;;;;6.70;3.70;;;;;;;25.34;73.58;98591.71;273242;1269;23506;-79
2023/07/19 08:27:48;;;;;;;5.20;4.00;;;;;;;25.43;72.38;98586.98;273597;1269;22461;-79
2023/07/19 08:33:51;;;;;;;15.50;4.70;;;;;;;25.46;71.14;98577.05;273632;1269;22395;-78
2023/07/19 08:39:53;;;;;;;10.00;3.80;;;;;;;25.43;70.57;98566.75;273520;1257;23873;-79
2023/07/19 08:45:55;;;;;;;6.60;3.30;;;;;;;25.40;69.86;98559.06;273528;1260;22377;-79
2023/07/19 08:51:57;;;;;;;6.00;3.80;;;;;;;25.47;69.87;98553.52;273451;1256;22467;-80
2023/07/19 08:57:59;;;;;;;4.90;3.10;;;;;;;25.69;69.29;98544.59;273428;1261;22416;-79
2023/07/19 09:04:10;;;;;;;6.40;3.40;;;;;;;25.75;67.61;98541.30;273423;1260;22402;-79
2023/07/19 09:10:39;;;;;;;6.10;3.30;;;;;;;25.86;67.22;98535.30;273437;1254;22344;-79
2023/07/19 09:16:41;;;;;;;4.30;3.10;;;;;;;26.05;66.37;98532.59;273434;1269;22347;-78
2023/07/19 09:22:44;;;;;;;6.50;2.80;;;;;;;26.26;65.12;98529.30;273334;1268;22403;-83
2023/07/19 09:28:45;;;;;;;5.00;3.20;;;;;;;26.31;63.91;98534.34;273006;1269;22275;-78
2023/07/19 09:34:47;;;;;;;7.00;3.10;;;;;;;26.15;62.76;98525.98;273537;1259;24757;-79
2023/07/19 09:40:53;;;;;;;4.40;3.20;;;;;;;26.11;62.58;98526.20;273463;1257;22387;-79
2023/07/19 09:46:56;;;;;;;7.70;3.10;;;;;;;26.38;63.12;98519.55;273488;1259;22183;-79
2023/07/19 09:53:01;;;;;;;4.80;3.30;;;;;;;27.07;62.80;98512.33;273477;1269;22224;-79
2023/07/19 09:59:10;;;;;;;7.40;3.50;;;;;;;27.76;60.77;98510.13;273234;1269;22975;-78
2023/07/19 10:05:11;;;;;;;6.80;3.60;;;;;;;28.47;59.29;98504.35;273527;1261;22451;-79
2023/07/19 10:11:31;;;;;;;7.00;3.20;;;;;;;28.82;57.71;98500.41;273170;1269;22600;-79
2023/07/19 10:18:02;;;;;;;4.90;3.10;;;;;;;29.02;56.31;98490.80;272401;1269;22819;-79
2023/07/19 10:24:36;;;;;;;4.60;2.50;;;;;;;29.08;55.24;98481.95;272918;1259;22406;-80
2023/07/19 10:30:50;;;;;;;6.70;3.20;;;;;;;29.50;54.72;98476.63;273330;1268;22429;-82
2023/07/19 10:36:52;;;;;;;5.40;3.80;;;;;;;29.78;53.63;98473.35;273543;1268;22209;-78
2023/07/19 10:42:54;;;;;;;6.90;3.30;;;;;;;29.65;53.46;98462.66;273508;1266;23601;-78
2023/07/19 10:48:58;;;;;;;4.40;3.20;;;;;;;29.50;52.11;98458.16;273484;1257;22183;-79
2023/07/19 10:55:20;;;;;;;6.20;2.80;;;;;;;29.45;51.38;98450.89;272875;1261;22329;-79
2023/07/19 11:01:23;;;;;;;7.20;3.00;;;;;;;29.55;50.71;98443.39;272756;1269;22368;-80
2023/07/19 11:07:51;;;;;;;3.90;3.30;;;;;;;29.68;50.44;98440.48;272857;1269;22745;-80
2023/07/19 11:14:36;;;;;;;6.60;3.40;;;;;;;29.83;49.49;98435.27;272377;1269;22538;-79
2023/07/19 11:20:39;;;;;;;4.30;2.70;;;;;;;30.07;48.57;98434.47;273328;1256;22693;-79
2023/07/19 11:26:50;;;;;;;3.30;2.70;;;;;;;30.38;48.25;98432.17;273385;1269;22115;-78
2023/07/19 11:33:09;;;;;;;7.40;3.20;;;;;;;30.57;47.20;98422.05;273399;1269;22393;-79
2023/07/19 11:39:20;;;;;;;5.40;2.50;;;;;;;30.90;46.38;98411.51;273338;1260;22199;-79
2023/07/19 11:45:24;;;;;;;8.70;3.60;;;;;;;31.19;46.23;98401.75;273345;1269;22261;-76
2023/07/19 11:51:27;;;;;;;10.20;3.20;;;;;;;31.30;45.68;98398.10;272896;1269;22508;-77
2023/07/19 11:57:30;;;;;;;9.60;3.40;;;;;;;31.11;45.20;98396.98;273368;1268;22382;-78
2023/07/19 12:03:32;;;;;;;4.70;3.10;;;;;;;30.97;44.85;98392.45;273001;1269;22526;-78
2023/07/19 12:09:38;;;;;;;5.80;3.30;;;;;;;30.84;44.71;98389.92;273294;1269;22386;-78
2023/07/19 12:15:53;;;;;;;5.80;3.70;;;;;;;30.62;44.92;98393.16;273296;1268;23898;-78
2023/07/19 12:21:58;;;;;;;4.90;3.40;;;;;;;30.11;44.08;98390.27;270486;1269;22551;-77
2023/07/19 12:28:22;;;;;;;4.90;3.30;;;;;;;29.70;44.05;98381.31;273080;1267;22385;-78
2023/07/19 12:34:24;;;;;;;5.90;3.20;;;;;;;29.52;44.70;98374.39;273466;1269;22574;-78
2023/07/19 12:40:26;;;;;;;4.90;3.50;;;;;;;29.34;44.21;98362.44;272906;1269;23132;-78
2023/07/19 12:46:29;;;;;;;6.70;3.80;;;;;;;29.09;43.96;98357.76;273380;1257;24165;-78
2023/07/19 12:52:31;;;;;;;5.70;3.30;;;;;;;28.92;44.02;98351.42;273542;1262;23270;-77
2023/07/19 12:58:33;;;;;;;5.60;3.30;;;;;;;28.71;43.49;98341.96;273524;1267;22448;-77
2023/07/19 13:04:35;;;;;;;6.10;3.10;;;;;;;28.58;44.11;98334.23;273386;1268;23606;-82
2023/07/19 13:10:37;;;;;;;6.70;3.30;;;;;;;28.49;43.77;98332.52;273540;1269;22399;-79
2023/07/19 13:16:38;;;;;;;5.60;3.70;;;;;;;28.42;44.03;98324.73;273426;1267;22440;-77
2023/07/19 13:22:40;;;;;;;5.20;3.30;;;;;;;28.38;44.77;98320.33;273467;1269;22376;-79
2023/07/19 13:29:02;;;;;;;14.70;3.90;;;;;;;28.19;44.27;98324.14;273335;1256;22211;-78
2023/07/19 13:35:04;;;;;;;6.70;3.70;;;;;;;28.10;45.12;98314.26;273511;1268;22342;-78
2023/07/19 13:41:27;;;;;;;6.20;3.20;;;;;;;28.16;45.75;98307.20;273552;1269;22211;-78
2023/07/19 13:47:28;;;;;;;5.90;3.70;;;;;;;28.20;45.11;98302.19;273438;1253;22226;-78
2023/07/19 13:53:30;;;;;;;7.00;3.60;;;;;;;28.18;45.37;98293.74;273499;1264;22838;-78
2023/07/19 13:59:32;;;;;;;8.80;3.30;;;;;;;28.09;45.19;98295.93;273570;1269;22314;-78
2023/07/19 14:05:34;;;;;;;7.10;3.40;;;;;;;28.02;44.96;98299.10;273572;1269;23169;-81
2023/07/19 14:11:44;;;;;;;5.20;3.30;;;;;;;28.05;45.58;98294.44;273541;1268;22231;-78
2023/07/19 14:17:46;;;;;;;6.20;3.70;;;;;;;27.96;45.17;98292.94;273407;1269;22414;-79
2023/07/19 14:23:48;;;;;;;4.40;3.20;;;;;;;27.76;45.48;98294.61;273656;1269;22382;-78
2023/07/19 14:29:52;;;;;;;4.80;3.00;;;;;;;27.61;45.75;98293.14;273417;1267;24207;-78
2023/07/19 14:35:53;;;;;;;7.30;3.40;;;;;;;27.58;45.66;98284.89;273323;1257;22639;-78
2023/07/19 14:41:55;;;;;;;5.80;3.50;;;;;;;27.59;46.22;98276.81;273503;1259;23707;-79
2023/07/19 14:48:08;;;;;;;6.80;3.40;;;;;;;27.62;45.53;98273.40;273478;1269;23271;-80
2023/07/19 14:54:10;;;;;;;5.60;3.20;;;;;;;27.54;45.73;98265.91;273490;1269;22707;-79
2023/07/19 15:00:13;;;;;;;5.40;3.30;;;;;;;27.42;45.25;98257.75;273478;1269;22388;-79
2023/07/19 15:06:24;;;;;;;8.20;3.40;;;;;;;27.42;45.69;98249.27;273583;1269;23138;-79
2023/07/19 15:12:46;;;;;;;5.00;2.80;;;;;;;27.40;45.59;98243.85;273489;1269;22380;-78
2023/07/19 15:18:47;;;;;;;5.50;3.60;;;;;;;27.37;45.14;98238.73;273409;1268;107288;-80
2023/07/19 15:24:49;;;;;;;5.40;3.10;;;;;;;27.39;45.20;98241.75;273383;1256;22391;-81
2023/07/19 15:30:53;;;;;;;7.80;3.20;;;;;;;27.33;45.19;98248.16;273411;1256;23580;-79
2023/07/19 15:36:54;;;;;;;4.00;3.10;;;;;;;27.25;45.19;98243.52;273475;1269;22359;-80
2023/07/19 15:42:57;;;;;;;7.00;3.30;;;;;;;27.24;44.97;98239.88;273356;1268;22791;-79
2023/07/19 15:49:19;;;;;;;11.40;3.10;;;;;;;27.22;45.29;98251.16;273484;1259;22290;-80
2023/07/19 15:55:22;;;;;;;6.90;3.20;;;;;;;27.15;45.46;98251.59;273103;1269;22393;-79
2023/07/19 16:01:24;;;;;;;7.60;3.10;;;;;;;27.05;46.23;98249.75;273547;1269;22401;-80
2023/07/19 16:07:29;;;;;;;4.70;3.00;;;;;;;26.92;46.23;98256.32;272105;1269;23755;-78
2023/07/19 16:13:30;;;;;;;4.70;2.80;;;;;;;26.84;46.06;98263.98;273211;1256;22280;-79
2023/07/19 16:19:32;;;;;;;6.50;2.80;;;;;;;26.82;45.71;98265.65;273530;1268;23314;-80
2023/07/19 16:25:34;;;;;;;6.50;3.70;;;;;;;26.77;46.04;98262.05;273584;1269;23093;-79
2023/07/19 16:31:41;;;;;;;6.40;3.30;;;;;;;26.69;46.00;98259.18;265863;1259;10001846;-79
2023/07/19 16:37:43;;;;;;;5.70;3.10;;;;;;;26.63;46.14;98251.94;273292;1269;22392;-79
2023/07/19 16:43:44;;;;;;;6.80;3.00;;;;;;;26.53;45.96;98252.56;273337;1269;22168;-81
2023/07/19 16:49:48;;;;;;;4.50;2.70;;;;;;;26.44;46.22;98256.44;273347;1269;22484;-80
2023/07/19 16:55:51;;;;;;;5.20;2.80;;;;;;;26.38;46.83;98263.27;273516;1266;22851;-79
2023/07/19 17:01:54;;;;;;;5.80;2.80;;;;;;;26.25;47.41;98264.23;273336;1269;22422;-79
2023/07/19 17:07:56;;;;;;;3.30;2.60;;;;;;;26.10;47.50;98267.11;273343;1269;22400;-79
2023/07/19 17:13:58;;;;;;;5.90;3.10;;;;;;;26.02;48.08;98268.35;273519;1268;22398;-80
2023/07/19 17:20:00;;;;;;;5.70;3.30;;;;;;;25.88;48.58;98266.77;273487;1269;22175;-80
2023/07/19 17:26:02;;;;;;;4.70;3.20;;;;;;;25.73;48.50;98273.10;273497;1257;22187;-79
2023/07/19 17:32:05;;;;;;;4.80;2.70;;;;;;;25.50;49.05;98271.67;273467;1269;23549;-80
2023/07/19 17:38:06;;;;;;;6.00;3.30;;;;;;;25.34;49.10;98275.94;273250;1252;22437;-80
2023/07/19 17:44:08;;;;;;;5.00;3.10;;;;;;;25.27;49.23;98268.85;273285;1268;22253;-82
2023/07/19 17:50:11;;;;;;;5.00;3.40;;;;;;;25.20;49.57;98271.52;273158;1269;22421;-80
2023/07/19 17:56:12;;;;;;;7.50;3.20;;;;;;;25.09;49.47;98269.14;273297;1259;23061;-80
2023/07/19 18:02:14;;;;;;;6.40;3.10;;;;;;;25.00;49.51;98268.00;273323;1269;22384;-80
2023/07/19 18:08:23;;;;;;;3.40;2.90;;;;;;;24.86;49.87;98267.05;273420;1269;22404;-81
2023/07/19 18:14:25;;;;;;;6.80;3.30;;;;;;;24.73;50.60;98262.03;273457;1268;22400;-81
2023/07/19 18:20:26;;;;;;;5.10;3.30;;;;;;;24.57;50.58;98264.52;273353;1269;22372;-81
2023/07/19 18:26:28;;;;;;;6.20;3.10;;;;;;;24.35;51.17;98269.71;273292;1258;22369;-80
2023/07/19 18:32:30;;;;;;;4.50;3.10;;;;;;;24.16;52.51;98262.92;273291;1269;22461;-81
2023/07/19 18:38:32;;;;;;;12.30;3.80;;;;;;;23.95;53.49;98260.83;272639;1256;23081;-79
2023/07/19 18:44:48;;;;;;;9.80;3.50;;;;;;;23.71;53.42;98260.73;272289;1269;23165;-79
2023/07/19 18:50:49;;;;;;;10.30;3.50;;;;;;;23.43;54.24;98262.34;273334;1259;22641;-79
2023/07/19 18:56:51;;;;;;;10.40;4.30;;;;;;;23.17;55.32;98271.64;273264;1269;23308;-79
2023/07/19 19:02:53;;;;;;;11.50;4.50;;;;;;;22.86;55.95;98276.90;273456;1268;23558;-79
2023/07/19 19:09:05;;;;;;;11.30;5.20;;;;;;;22.55;56.91;98281.20;273428;1269;22439;-80
2023/07/19 19:15:07;;;;;;;9.60;3.90;;;;;;;22.34;58.08;98291.02;273422;1257;22422;-78
2023/07/19 19:21:09;;;;;;;10.70;4.50;;;;;;;22.14;58.90;98295.63;273500;1268;22322;-79
2023/07/19 19:27:11;;;;;;;15.00;5.50;;;;;;;21.86;60.70;98301.85;272900;1269;23662;-79
2023/07/19 19:33:12;;;;;;;10.20;4.20;;;;;;;21.51;61.24;98310.77;273598;1259;22265;-79
2023/07/19 19:39:14;;;;;;;14.60;5.10;;;;;;;21.26;62.12;98319.58;273481;1269;22218;-79
2023/07/19 19:45:16;;;;;;;16.80;6.30;;;;;;;21.10;64.11;98322.66;273393;1268;22430;-79
2023/07/19 19:51:17;;;;;;;14.00;6.40;;;;;;;20.88;64.62;98319.89;273512;1256;22918;-78
2023/07/19 19:57:19;;;;;;;11.00;6.10;;;;;;;20.61;65.95;98316.54;273605;1259;23384;-78
2023/07/19 20:03:21;;;;;;;13.40;6.70;;;;;;;20.35;66.43;98316.61;273601;1261;24061;-78
2023/07/19 20:09:35;;;;;;;13.70;6.10;;;;;;;20.25;67.94;98315.42;273412;1268;23277;-78
2023/07/19 20:15:47;;;;;;;20.90;7.60;;;;;;;20.07;69.18;98315.61;273573;1259;22377;-78
2023/07/19 20:21:49;;;;;;;16.60;8.60;;;;;;;19.89;70.11;98317.92;273597;1260;22424;-78
2023/07/19 20:27:51;;;;;;;17.40;7.90;;;;;;;19.75;71.76;98320.84;273629;1257;23546;-78
2023/07/19 20:33:54;;;;;;;15.60;6.40;;;;;;;19.62;72.87;98323.06;273608;1260;22432;-80
2023/07/19 20:39:56;;;;;;;19.20;8.20;;;;;;;19.53;72.86;98321.94;273555;1269;23439;-78
2023/07/19 20:45:58;;;;;;;21.30;9.00;;;;;;;19.45;73.20;98314.94;273466;1269;22182;-81
2023/07/19 20:52:00;;;;;;;23.10;9.90;;;;;;;19.41;73.68;98310.48;273582;1259;22991;-78
2023/07/19 20:58:01;;;;;;;26.00;11.60;;;;;;;19.38;74.08;98305.98;273539;1268;22377;-80
2023/07/19 21:04:03;;;;;;;24.80;10.30;;;;;;;19.39;74.52;98305.23;273357;1268;23134;-78
2023/07/19 21:10:05;;;;;;;25.00;11.10;;;;;;;19.40;75.70;98307.25;273483;1269;22246;-79
2023/07/19 21:16:07;;;;;;;24.20;11.10;;;;;;;19.38;77.36;98308.12;273537;1269;22469;-79
2023/07/19 21:22:09;;;;;;;20.90;10.10;;;;;;;19.32;78.00;98308.13;273417;1263;22442;-78
2023/07/19 21:28:11;;;;;;;23.70;8.90;;;;;;;19.24;78.69;98307.96;273433;1260;22440;-79
2023/07/19 21:34:13;;;;;;;24.60;10.70;;;;;;;19.24;79.39;98307.87;273500;1268;22588;-79
2023/07/19 21:40:17;;;;;;;25.60;10.50;;;;;;;19.28;80.66;98310.84;273475;1269;22253;-81
2023/07/19 21:46:19;;;;;;;28.50;11.00;;;;;;;19.35;81.78;98313.80;273384;1269;22587;-78
2023/07/19 21:52:34;;;;;;;20.80;9.30;;;;;;;19.34;82.16;98319.59;272702;1269;23619;-79
2023/07/19 21:58:36;;;;;;;16.60;7.60;;;;;;;19.34;82.18;98317.39;271480;1269;26290;-79
2023/07/19 22:04:38;;;;;;;11.80;6.50;;;;;;;19.36;81.99;98316.06;273004;1269;22436;-79
2023/07/19 22:10:40;;;;;;;17.60;7.60;;;;;;;19.35;81.89;98329.97;273410;1269;22357;-79
2023/07/19 22:16:43;;;;;;;13.10;6.20;;;;;;;19.32;82.12;98346.24;273438;1269;23621;-79
2023/07/19 22:22:45;;;;;;;11.40;6.90;;;;;;;19.30;82.78;98362.63;273344;1260;23671;-79
2023/07/19 22:28:50;;;;;;;19.50;8.90;;;;;;;19.26;83.72;98405.34;273527;1270;22383;-79
2023/07/19 22:34:52;;;;;;;16.00;8.80;;;;;;;19.17;84.56;98430.98;273290;1258;22542;-80
2023/07/19 22:41:02;;;;;;;15.10;8.20;;;;;;;19.02;84.75;98417.69;273573;1269;22283;-80
2023/07/19 22:47:18;;;;;;;12.10;7.50;;;;;;;18.90;84.76;98379.55;273067;1269;22199;-79
2023/07/19 22:53:20;;;;;;;10.20;6.70;;;;;;;18.74;85.04;98351.15;271437;1268;22576;-79
2023/07/19 22:59:31;;;;;;;14.00;7.60;;;;;;;18.60;87.02;98348.48;272045;1258;22555;-79
2023/07/19 23:05:35;;;;;;;9.80;6.50;;;;;;;18.46;88.09;98326.35;272199;1269;22409;-79
2023/07/19 23:11:57;;;;;;;12.00;6.20;;;;;;;18.39;89.92;98336.00;273452;1269;22186;-79
2023/07/19 23:17:58;;;;;;;13.90;6.20;;;;;;;18.26;89.99;98326.15;272421;1269;22494;-78
2023/07/19 23:24:00;;;;;;;8.30;4.60;;;;;;;18.10;89.65;98321.89;273409;1264;23571;-80
2023/07/19 23:30:02;;;;;;;8.90;4.20;;;;;;;18.05;89.39;98308.84;273186;1269;23492;-79
2023/07/19 23:36:04;;;;;;;6.60;4.60;;;;;;;18.06;90.27;98308.00;272889;1269;22298;-79
2023/07/19 23:42:06;;;;;;;10.60;4.50;;;;;;;17.93;91.13;98305.47;273463;1269;22528;-79
2023/07/19 23:48:07;;;;;;;5.20;4.00;;;;;;;17.85;91.81;98301.45;273335;1269;22467;-79
2023/07/19 23:54:09;;;;;;;6.40;3.70;;;;;;;17.80;92.24;98296.84;273460;1260;22507;-79
